地図

経路データ

SID SEASON NUMBER BASIN SUBBASIN NAME ISO_TIME NATURE LAT LON WMO_WIND WMO_PRES WMO_AGENCY TRACK_TYPE DIST2LAND LANDFALL IFLAG USA_AGENCY USA_ATCF_ID USA_LAT USA_LON USA_RECORD USA_STATUS USA_WIND USA_PRES USA_SSHS USA_R34_NE USA_R34_SE USA_R34_SW USA_R34_NW USA_R50_NE USA_R50_SE USA_R50_SW USA_R50_NW USA_R64_NE USA_R64_SE USA_R64_SW USA_R64_NW USA_POCI USA_ROCI USA_RMW USA_EYE TOKYO_LAT TOKYO_LON TOKYO_GRADE TOKYO_WIND TOKYO_PRES TOKYO_R50_DIR TOKYO_R50_LONG TOKYO_R50_SHORT TOKYO_R30_DIR TOKYO_R30_LONG TOKYO_R30_SHORT TOKYO_LAND CMA_LAT CMA_LON CMA_CAT CMA_WIND CMA_PRES HKO_LAT HKO_LON HKO_CAT HKO_WIND HKO_PRES NEWDELHI_LAT NEWDELHI_LON NEWDELHI_GRADE NEWDELHI_WIND NEWDELHI_PRES NEWDELHI_CI NEWDELHI_DP NEWDELHI_POCI REUNION_LAT REUNION_LON REUNION_TYPE REUNION_WIND REUNION_PRES REUNION_TNUM REUNION_CI REUNION_RMW REUNION_R34_NE REUNION_R34_SE REUNION_R34_SW REUNION_R34_NW REUNION_R50_NE REUNION_R50_SE REUNION_R50_SW REUNION_R50_NW REUNION_R64_NE REUNION_R64_SE REUNION_R64_SW REUNION_R64_NW BOM_LAT BOM_LON BOM_TYPE BOM_WIND BOM_PRES BOM_TNUM BOM_CI BOM_RMW BOM_R34_NE BOM_R34_SE BOM_R34_SW BOM_R34_NW BOM_R50_NE BOM_R50_SE BOM_R50_SW BOM_R50_NW BOM_R64_NE BOM_R64_SE BOM_R64_SW BOM_R64_NW BOM_ROCI BOM_POCI BOM_EYE BOM_POS_METHOD BOM_PRES_METHOD NADI_LAT NADI_LON NADI_CAT NADI_WIND NADI_PRES WELLINGTON_LAT WELLINGTON_LON WELLINGTON_WIND WELLINGTON_PRES DS824_LAT DS824_LON DS824_STAGE DS824_WIND DS824_PRES TD9636_LAT TD9636_LON TD9636_STAGE TD9636_WIND TD9636_PRES TD9635_LAT TD9635_LON TD9635_WIND TD9635_PRES TD9635_ROCI NEUMANN_LAT NEUMANN_LON NEUMANN_CLASS NEUMANN_WIND NEUMANN_PRES MLC_LAT MLC_LON MLC_CLASS MLC_WIND MLC_PRES USA_GUST BOM_GUST BOM_GUST_PER REUNION_GUST REUNION_GUST_PER USA_SEAHGT USA_SEARAD_NE USA_SEARAD_SE USA_SEARAD_SW USA_SEARAD_NW STORM_SPEED STORM_DIR
1970287N26164 1970 134 WP MM NOT_NAMED 1970-10-14 00:00:00 TS 25.7000 163.800 main 2445 2366 __O___________ -1 25.7000 163.800 0 1008 17 287
1970287N26164 1970 134 WP MM NOT_NAMED 1970-10-14 03:00:00 TS 25.9382 162.915 main 2358 2272 __P___________ -1 25.9382 162.915 0 1008 17 287
1970287N26164 1970 134 WP MM NOT_NAMED 1970-10-14 06:00:00 TS 26.2000 162.000 main 2264 2171 __O___________ -1 26.2000 162.000 0 1008 18 289
1970287N26164 1970 134 WP MM NOT_NAMED 1970-10-14 09:00:00 TS 26.5127 161.055 main 2171 2071 __P___________ -1 26.5127 161.055 0 1008 18 293
1970287N26164 1970 134 WP MM NOT_NAMED 1970-10-14 12:00:00 TS 26.9000 160.200 main 2071 1997 __O___________ -1 26.9000 160.200 0 19 1008 16 303
1970287N26164 1970 134 WP MM NOT_NAMED 1970-10-14 15:00:00 TS 27.3767 159.540 main 1983 1912 __P___________ -1 27.3767 159.540 0 21 1008 15 313
1970287N26164 1970 134 WP MM NOT_NAMED 1970-10-14 18:00:00 TS 27.9000 159.000 main 1912 1847 __O___________ -1 27.9000 159.000 1 23 1008 13 316
1970287N26164 1970 134 WP MM NOT_NAMED 1970-10-14 21:00:00 TS 28.3472 158.484 main 1847 1771 __P___________ -1 28.3472 158.484 1 26 1007 13 319
1970287N26164 1970 134 WP MM NOT_NAMED 1970-10-15 00:00:00 TS 28.9000 158.000 main 1771 1690 __O___________ -1 28.9000 158.000 1 29 1006 16 326
1970287N26164 1970 134 WP MM NOT_NAMED 1970-10-15 03:00:00 TS 29.6903 157.449 main 1677 1602 __P___________ -1 29.6903 157.449 1 29 1006 19 333
1970287N26164 1970 134 WP MM NOT_NAMED 1970-10-15 06:00:00 TS 30.6000 157.000 main 1597 1544 __O___________ -1 30.6000 157.000 1 29 1006 19 342
1970287N26164 1970 134 WP MM NOT_NAMED 1970-10-15 09:00:00 TS 31.4997 156.767 main 1540 1496 __P___________ -1 31.4997 156.767 1 29 1004 18 352
1970287N26164 1970 134 WP MM NOT_NAMED 1970-10-15 12:00:00 TS 32.4000 156.700 main 1496 1470 __O___________ -1 32.4000 156.700 1 29 1002 18 358
1970287N26164 1970 134 WP MM NOT_NAMED 1970-10-15 15:00:00 TS 33.2574 156.705 main 1467 1405 __P___________ -1 33.2574 156.705 1 29 1003 17 3
1970287N26164 1970 134 WP MM NOT_NAMED 1970-10-15 18:00:00 TS 34.1000 156.800 main 1405 1332 __O___________ -1 34.1000 156.800 1 29 1004 17 4
1970287N26164 1970 134 WP MM NOT_NAMED 1970-10-15 21:00:00 TS 34.9719 156.862 main 1326 1253 __P___________ -1 34.9719 156.862 1 29 1004 17 8
1970287N26164 1970 134 WP MM NOT_NAMED 1970-10-16 00:00:00 TS 35.8000 157.100 main 1253 1207 __O___________ -1 35.8000 157.100 1 29 1004 17 22
1970287N26164 1970 134 WP MM NOT_NAMED 1970-10-16 03:00:00 TS 36.5301 157.652 main 1211 1179 __P___________ -1 36.5301 157.652 1 29 1004 17 37
1970287N26164 1970 134 WP MM NOT_NAMED 1970-10-16 06:00:00 TS 37.2000 158.400 main 1180 1158 __O___________ -1 37.2000 158.400 1 29 1004 18 42
1970287N26164 1970 134 WP MM NOT_NAMED 1970-10-16 09:00:00 TS 37.8639 159.134 main 1154 1145 __P___________ -1 37.8639 159.134 1 29 1004 18 44
1970287N26164 1970 134 WP MM NOT_NAMED 1970-10-16 12:00:00 TS 38.5000 160.000 main 1151 1148 __O___________ -1 38.5000 160.000 1 29 1004 19 50
1970287N26164 1970 134 WP MM NOT_NAMED 1970-10-16 15:00:00 TS 39.1140 161.019 main 1160 1159 __P___________ -1 39.1140 161.019 1 29 1004 21 55
1970287N26164 1970 134 WP MM NOT_NAMED 1970-10-16 18:00:00 TS 39.7000 162.200 main 1191 1190 __O___________ -1 39.7000 162.200 1 29 1004 22 59
1970287N26164 1970 134 WP MM NOT_NAMED 1970-10-16 21:00:00 TS 40.2724 163.521 main 1236 1236 __P___________ -1 40.2724 163.521 1 29 1004 23 62
1970287N26164 1970 134 WP MM NOT_NAMED 1970-10-17 00:00:00 ET 40.8000 164.900 main 1254 1249 __O___________ -1 40.8000 164.900 9 29 1004 23 64
1970287N26164 1970 134 WP MM NOT_NAMED 1970-10-17 03:00:00 ET 41.2627 166.196 main 1266 1266 __P___________ -1 41.2627 166.196 9 26 1004 21 65
1970287N26164 1970 134 WP MM NOT_NAMED 1970-10-17 06:00:00 ET 41.7000 167.500 main 1296 1293 __O___________ -1 41.7000 167.500 9 23 1005 22 65
1970287N26164 1970 134 WP MM NOT_NAMED 1970-10-17 09:00:00 ET 42.1693 168.834 main 1326 1326 __P___________ -1 42.1693 168.834 9 21 1005 23 67
1970287N26164 1970 134 WP MM NOT_NAMED 1970-10-17 12:00:00 ET 42.6000 170.300 main 1364 1364 __O___________ -1 42.6000 170.300 9 19 1006 24 72
1970287N26164 1970 134 WP MM NOT_NAMED 1970-10-17 15:00:00 ET 42.9438 171.983 main 1429 1426 __P___________ -1 42.9438 171.983 9 1007 26 77
1970287N26164 1970 134 WP MM NOT_NAMED 1970-10-17 18:00:00 ET 43.2000 173.800 main 1489 1489 __O___________ -1 43.2000 173.800 9 1008 27 81
1970287N26164 1970 134 WP MM NOT_NAMED 1970-10-17 21:00:00 ET 43.3778 175.646 main 1550 1448 __P___________ -1 43.3778 175.646 9 1008 27 84
1970287N26164 1970 134 WP MM NOT_NAMED 1970-10-18 00:00:00 ET 43.5000 177.500 main 1443 __O___________ -1 43.5000 177.500 9 1008 27 85

デジタル台風データ・検索

IBTrACS Databaseについて

本データベースは、米国NOAAが公開する1842年以降の世界の熱帯低気圧のベストトラックデータアーカイブInternational Best Track Archive for Climate Stewardship (IBTrACS)を、ウェブで閲覧しやすい形式に変換したものです。

最終更新日:2021-10-08